Upper Pig Pen, North Carolina
Current Conditions -  °F | °C
As of 2:55 PM on Sunday 21 Dec 2014 (Local Time) from K0A9 Reporting Station
Clear Clear  
Wind Chill: 52°   Ceiling: Unl
Heat Index: 52°   Visibility: 10mi
Dew Point: 36°   Wind: 0mph
Humidity: 54%   Direction: NA
Pressure: 30.12"   Gusts: NA
Location:  35.955°N, 82.2044°W
Report Text: K0A9 211955Z AUTO 00000KT 10SM CLR 11/02 A3012 RMK
Loading
Personal Weather Stations






























Interactive Weather Map New forecast layout! Learn more

10-Day Weather Forecast

Advertisements
Track Severe Weather on mobile